createdAt,value
2022-10-26T00:01:00.525Z,0
2022-10-26T00:03:02.346Z,0
2022-10-26T00:05:03.612Z,0
2022-10-26T00:07:05.083Z,0
2022-10-26T00:09:06.696Z,0
2022-10-26T00:11:08.122Z,0
2022-10-26T00:13:09.598Z,0
2022-10-26T00:15:10.955Z,0
2022-10-26T00:17:12.893Z,0
2022-10-26T00:19:13.839Z,0
2022-10-26T00:21:15.083Z,0
2022-10-26T00:23:16.054Z,0
2022-10-26T00:25:17.992Z,0
2022-10-26T00:27:19.077Z,0
2022-10-26T00:29:20.183Z,0
2022-10-26T00:31:21.279Z,0
2022-10-26T00:35:34.718Z,0
2022-10-26T00:37:25.259Z,0
2022-10-26T00:39:26.442Z,0
2022-10-26T00:41:28.373Z,0
2022-10-26T00:45:31.153Z,0
2022-10-26T00:47:32.567Z,0
2022-10-26T00:49:33.929Z,0
2022-10-26T00:51:35.834Z,0
2022-10-26T00:53:37.196Z,0
2022-10-26T00:55:39.056Z,0
2022-10-26T00:57:40.135Z,0
2022-10-26T00:59:41.636Z,0
2022-10-26T01:01:43.021Z,0
2022-10-26T01:03:44.851Z,0
2022-10-26T01:05:46.139Z,0
2022-10-26T01:07:47.391Z,0
2022-10-26T01:09:48.512Z,0
2022-10-26T01:13:51.334Z,0
2022-10-26T01:15:52.667Z,0
2022-10-26T01:17:53.947Z,0.842
2022-10-26T01:19:55.485Z,0
2022-10-26T01:21:56.944Z,0
2022-10-26T01:23:58.627Z,0
2022-10-26T01:28:01.102Z,0
2022-10-26T01:30:02.205Z,0
2022-10-26T01:32:03.900Z,0
2022-10-26T01:34:05.509Z,0
2022-10-26T01:36:06.492Z,0
2022-10-26T01:38:08.274Z,1.825
2022-10-26T01:40:09.475Z,0.28
2022-10-26T01:42:11.131Z,0
2022-10-26T01:44:13.077Z,0
2022-10-26T01:46:14.579Z,0
2022-10-26T01:48:15.897Z,0
2022-10-26T01:50:16.879Z,0
2022-10-26T01:52:17.976Z,0
2022-10-26T01:54:18.920Z,0
2022-10-26T01:56:19.950Z,0
2022-10-26T01:58:21.220Z,0
2022-10-26T02:00:22.918Z,0
2022-10-26T02:02:24.842Z,0.28
2022-10-26T02:04:25.836Z,0
2022-10-26T02:06:27.558Z,0
2022-10-26T02:08:28.753Z,0
2022-10-26T02:10:30.332Z,0
2022-10-26T02:12:31.877Z,0
2022-10-26T02:14:33.560Z,0
2022-10-26T02:16:34.763Z,0
2022-10-26T02:18:35.775Z,0
2022-10-26T02:20:37.692Z,0
2022-10-26T02:22:38.903Z,0
2022-10-26T02:24:40.683Z,0
2022-10-26T02:26:42.099Z,0
2022-10-26T02:28:43.997Z,0
2022-10-26T02:30:45.283Z,0
2022-10-26T02:32:46.565Z,0
2022-10-26T02:34:48.278Z,0
2022-10-26T02:36:49.668Z,0
2022-10-26T02:38:50.710Z,0
2022-10-26T02:40:52.205Z,0
2022-10-26T02:42:53.897Z,0
2022-10-26T02:44:55.682Z,0
2022-10-26T02:46:56.891Z,0
2022-10-26T02:48:58.299Z,0
2022-10-26T02:50:59.886Z,0
2022-10-26T02:53:01.559Z,0
2022-10-26T02:55:02.777Z,0
2022-10-26T02:59:05.163Z,0
2022-10-26T03:01:06.275Z,0
2022-10-26T03:03:07.834Z,0
2022-10-26T03:05:09.111Z,0
2022-10-26T03:09:11.590Z,0
2022-10-26T03:11:13.275Z,0
2022-10-26T03:13:14.465Z,0
2022-10-26T03:15:15.584Z,0
2022-10-26T03:17:17.150Z,0
2022-10-26T03:19:19.027Z,0
2022-10-26T03:21:20.048Z,0
2022-10-26T03:23:21.510Z,0
2022-10-26T03:25:22.772Z,0
2022-10-26T03:27:23.792Z,0
2022-10-26T03:29:25.678Z,0
2022-10-26T03:31:27.161Z,0
2022-10-26T03:33:28.606Z,0
2022-10-26T03:35:30.240Z,0
2022-10-26T03:37:31.923Z,0
2022-10-26T03:41:34.559Z,0
2022-10-26T03:43:36.271Z,0
2022-10-26T03:45:37.431Z,0
2022-10-26T03:47:39.426Z,0
2022-10-26T03:51:42.162Z,0
2022-10-26T03:53:43.519Z,0
2022-10-26T03:55:45.380Z,0
2022-10-26T03:57:46.841Z,0
2022-10-26T03:59:48.529Z,0
2022-10-26T04:01:51.564Z,0
2022-10-26T04:03:51.656Z,0
2022-10-26T04:05:53.048Z,0
2022-10-26T04:07:54.490Z,0
2022-10-26T04:09:55.751Z,0
2022-10-26T04:11:57.602Z,0
2022-10-26T04:13:59.069Z,0
2022-10-26T04:16:00.355Z,0
2022-10-26T04:20:03.440Z,0
2022-10-26T04:22:04.901Z,0
2022-10-26T04:24:06.821Z,0.561
2022-10-26T04:26:08.382Z,0
2022-10-26T04:28:09.524Z,0
2022-10-26T04:30:10.465Z,0
2022-10-26T04:32:11.669Z,0
2022-10-26T04:34:13.358Z,2.948
2022-10-26T04:36:15.166Z,1.123
2022-10-26T04:38:16.407Z,1.684
2022-10-26T04:40:17.951Z,0.842
2022-10-26T04:42:19.325Z,0.14
2022-10-26T04:44:20.505Z,0.842
2022-10-26T04:46:21.694Z,0
2022-10-26T04:48:22.884Z,0.14
2022-10-26T04:50:26.157Z,0
2022-10-26T04:52:25.243Z,0
2022-10-26T04:54:26.948Z,0
2022-10-26T04:56:28.432Z,0
2022-10-26T04:58:30.257Z,0
2022-10-26T05:00:31.766Z,0
2022-10-26T05:02:33.127Z,0
2022-10-26T05:04:34.100Z,0
2022-10-26T05:06:35.318Z,1.404
2022-10-26T05:08:36.641Z,0.421
2022-10-26T05:10:38.108Z,0.421
2022-10-26T05:12:39.384Z,0
2022-10-26T05:14:40.808Z,0
2022-10-26T05:16:42.125Z,0
2022-10-26T05:18:44.017Z,0
2022-10-26T05:20:45.369Z,0
2022-10-26T05:22:46.443Z,0
2022-10-26T05:23:30.206Z,0
2022-10-26T05:25:31.308Z,0.421
2022-10-26T05:27:32.433Z,0
2022-10-26T05:29:33.652Z,0
2022-10-26T05:31:35.404Z,0
2022-10-26T05:33:36.551Z,0
2022-10-26T05:35:38.130Z,0
2022-10-26T05:37:39.084Z,0
2022-10-26T05:39:40.307Z,0
2022-10-26T05:41:41.436Z,0
2022-10-26T05:43:43.118Z,0
2022-10-26T05:45:44.337Z,0
2022-10-26T05:49:47.093Z,0
2022-10-26T05:51:48.504Z,0
2022-10-26T05:53:50.194Z,0
2022-10-26T05:55:51.898Z,0
2022-10-26T05:57:53.070Z,0
2022-10-26T05:59:54.831Z,0
2022-10-26T06:01:56.042Z,0
2022-10-26T06:03:56.917Z,0
2022-10-26T06:05:57.915Z,0
2022-10-26T06:10:00.017Z,0
2022-10-26T06:12:01.318Z,0
2022-10-26T06:14:02.504Z,0
2022-10-26T06:16:04.200Z,0
2022-10-26T06:18:05.615Z,0
2022-10-26T06:20:07.487Z,0
2022-10-26T06:22:08.868Z,0
2022-10-26T06:24:10.219Z,0
2022-10-26T06:26:11.736Z,0.982
2022-10-26T06:28:13.055Z,0
2022-10-26T06:30:14.858Z,0
2022-10-26T06:32:16.343Z,0.14
2022-10-26T06:34:17.447Z,0
2022-10-26T06:36:18.606Z,0
2022-10-26T06:38:20.493Z,0
2022-10-26T06:40:22.158Z,0
2022-10-26T06:42:23.637Z,0
2022-10-26T06:44:25.337Z,0
2022-10-26T06:46:26.633Z,0
2022-10-26T06:48:28.564Z,0
2022-10-26T06:50:29.891Z,0
2022-10-26T06:52:30.959Z,0
2022-10-26T06:54:31.883Z,0
2022-10-26T06:56:32.974Z,0
2022-10-26T06:58:34.548Z,0
2022-10-26T07:00:35.651Z,0
2022-10-26T07:02:36.866Z,0
2022-10-26T07:04:37.981Z,0
2022-10-26T07:08:40.957Z,0
2022-10-26T07:10:42.832Z,0
2022-10-26T07:12:44.028Z,0
2022-10-26T07:14:45.829Z,2.386
2022-10-26T07:16:47.317Z,1.263
2022-10-26T07:18:49.120Z,0.14
2022-10-26T07:20:50.132Z,0
2022-10-26T07:22:50.987Z,0
2022-10-26T07:24:52.341Z,0
2022-10-26T07:26:53.551Z,0
2022-10-26T07:28:55.189Z,0
2022-10-26T07:30:56.367Z,0
2022-10-26T07:32:57.855Z,0
2022-10-26T07:34:58.981Z,0
2022-10-26T07:37:00.424Z,0
2022-10-26T07:41:03.414Z,0
2022-10-26T07:43:04.302Z,0
2022-10-26T07:45:05.908Z,0
2022-10-26T07:49:08.717Z,0
2022-10-26T07:51:09.812Z,0
2022-10-26T07:53:11.448Z,0
2022-10-26T07:55:12.501Z,0
2022-10-26T07:57:14.037Z,0
2022-10-26T07:59:15.853Z,0
2022-10-26T08:01:16.981Z,0
2022-10-26T08:03:18.755Z,0
2022-10-26T08:05:19.815Z,0
2022-10-26T08:07:21.163Z,0
2022-10-26T08:09:22.957Z,0
2022-10-26T08:11:24.170Z,0
2022-10-26T08:13:26.009Z,0
2022-10-26T08:15:27.596Z,0
2022-10-26T08:17:28.738Z,0
2022-10-26T08:19:30.184Z,0
2022-10-26T08:21:40.001Z,0
2022-10-26T08:23:33.803Z,0
2022-10-26T08:25:34.700Z,0
2022-10-26T08:29:37.525Z,0
2022-10-26T08:31:38.571Z,0
2022-10-26T08:33:41.771Z,0
2022-10-26T08:35:40.804Z,0
2022-10-26T08:37:42.339Z,0
2022-10-26T08:39:43.970Z,0
2022-10-26T08:41:45.064Z,0
2022-10-26T08:43:46.107Z,0
2022-10-26T08:45:47.768Z,0
2022-10-26T08:47:49.320Z,0
2022-10-26T08:49:50.246Z,0
2022-10-26T08:51:51.921Z,0
2022-10-26T08:53:53.060Z,0
2022-10-26T08:55:54.776Z,0
2022-10-26T08:57:56.310Z,0
2022-10-26T08:59:58.108Z,0
2022-10-26T09:01:59.578Z,0
2022-10-26T09:06:01.955Z,0
2022-10-26T09:08:03.675Z,0
2022-10-26T09:10:05.381Z,0
2022-10-26T09:12:07.122Z,0.28
2022-10-26T09:14:08.762Z,0.421
2022-10-26T09:16:09.669Z,0
2022-10-26T09:18:10.972Z,0
2022-10-26T09:22:13.498Z,0
2022-10-26T09:24:15.213Z,0
2022-10-26T09:26:16.343Z,0
2022-10-26T09:28:18.036Z,0
2022-10-26T09:32:20.714Z,0
2022-10-26T09:34:21.608Z,0
2022-10-26T09:36:23.239Z,0
2022-10-26T09:38:24.462Z,0
2022-10-26T09:40:26.221Z,0.702
2022-10-26T09:42:27.433Z,0
2022-10-26T09:44:28.638Z,0
2022-10-26T09:46:29.715Z,0
2022-10-26T09:48:31.156Z,0
2022-10-26T09:50:32.161Z,0
2022-10-26T09:54:34.742Z,0
2022-10-26T09:56:36.476Z,0
2022-10-26T09:58:37.876Z,0
2022-10-26T10:00:39.014Z,0
2022-10-26T10:02:40.084Z,0.14
2022-10-26T10:04:40.736Z,0
2022-10-26T10:06:42.036Z,0
2022-10-26T10:08:43.985Z,0
2022-10-26T10:10:45.047Z,0
2022-10-26T10:14:48.448Z,0.28
2022-10-26T10:16:49.662Z,2.106
2022-10-26T10:18:50.564Z,2.106
2022-10-26T10:20:51.543Z,1.684
2022-10-26T10:22:52.972Z,0
2022-10-26T10:24:54.344Z,0
2022-10-26T10:26:55.313Z,0
2022-10-26T10:28:56.686Z,1.544
2022-10-26T10:32:59.607Z,0.561
2022-10-26T10:35:01.065Z,0.842
2022-10-26T10:37:01.944Z,1.263
2022-10-26T10:39:02.922Z,3.229
2022-10-26T10:43:06.115Z,1.123
2022-10-26T10:45:07.002Z,1.684
2022-10-26T10:47:08.413Z,3.931
2022-10-26T10:49:09.610Z,0.14
2022-10-26T10:51:11.340Z,0
2022-10-26T10:53:12.603Z,2.106
2022-10-26T10:55:14.396Z,0.28
2022-10-26T10:57:16.034Z,0
2022-10-26T10:59:17.559Z,3.088
2022-10-26T11:01:19.370Z,3.79
2022-10-26T11:03:23.299Z,0.421
2022-10-26T11:05:24.721Z,2.246
2022-10-26T11:07:24.532Z,6.879
2022-10-26T11:09:25.759Z,3.51
2022-10-26T11:11:26.846Z,3.79
2022-10-26T11:13:28.360Z,3.79
2022-10-26T11:15:29.351Z,1.684
2022-10-26T11:17:30.897Z,1.684
2022-10-26T11:19:32.660Z,2.667
2022-10-26T11:21:34.284Z,7.02
2022-10-26T11:23:35.275Z,7.862
2022-10-26T11:25:36.314Z,5.616
2022-10-26T11:27:37.338Z,8.002
2022-10-26T11:29:39.447Z,4.773
2022-10-26T11:31:39.660Z,7.02
2022-10-26T11:33:41.330Z,3.369
2022-10-26T11:35:42.416Z,10.249
2022-10-26T11:37:43.240Z,5.896
2022-10-26T11:39:44.222Z,4.492
2022-10-26T11:41:45.369Z,4.773
2022-10-26T11:45:48.194Z,5.896
2022-10-26T11:47:50.083Z,7.3
2022-10-26T11:49:51.243Z,10.108
2022-10-26T11:51:52.315Z,11.372
2022-10-26T11:55:55.238Z,9.406
2022-10-26T11:57:56.642Z,7.722
2022-10-26T11:59:58.400Z,6.458
2022-10-26T12:01:59.533Z,7.3
2022-10-26T12:04:00.561Z,8.564
2022-10-26T12:06:01.383Z,4.071
2022-10-26T12:08:03.042Z,2.386
2022-10-26T12:08:46.779Z,6.739
2022-10-26T12:10:47.632Z,8.283
2022-10-26T12:12:49.634Z,5.475
2022-10-26T12:14:51.089Z,8.704
2022-10-26T12:16:52.912Z,7.02
2022-10-26T12:18:55.845Z,7.02
2022-10-26T12:20:55.695Z,7.581
2022-10-26T12:22:57.260Z,5.756
2022-10-26T12:24:58.925Z,5.194
2022-10-26T12:27:00.655Z,8.283
2022-10-26T12:29:01.803Z,9.266
2022-10-26T12:31:03.279Z,6.458
2022-10-26T12:33:05.013Z,10.108
2022-10-26T12:35:06.137Z,6.318
2022-10-26T12:39:09.107Z,7.722
2022-10-26T12:41:10.502Z,8.845
2022-10-26T12:43:11.555Z,6.739
2022-10-26T12:45:13.068Z,3.79
2022-10-26T12:47:13.707Z,14.04
2022-10-26T12:49:14.554Z,7.581
2022-10-26T12:51:15.948Z,11.091
2022-10-26T12:53:17.370Z,8.845
2022-10-26T12:55:18.897Z,6.037
2022-10-26T12:57:20.168Z,9.547
2022-10-26T12:59:22.013Z,4.773
2022-10-26T13:01:23.675Z,10.951
2022-10-26T13:03:25.015Z,11.653
2022-10-26T13:05:26.106Z,4.773
2022-10-26T13:07:27.003Z,9.687
2022-10-26T13:09:28.354Z,9.266
2022-10-26T13:11:29.940Z,6.739
2022-10-26T13:13:31.007Z,7.02
2022-10-26T13:15:32.629Z,4.212
2022-10-26T13:21:35.613Z,4.633
2022-10-26T13:23:37.254Z,8.002
2022-10-26T13:25:38.612Z,5.475
2022-10-26T13:27:40.142Z,4.914
2022-10-26T13:31:42.458Z,5.616
2022-10-26T13:33:43.984Z,7.16
2022-10-26T13:35:45.532Z,5.756
2022-10-26T13:37:47.165Z,7.862
2022-10-26T13:39:48.251Z,6.458
2022-10-26T13:41:49.230Z,6.598
2022-10-26T13:43:50.388Z,10.951
2022-10-26T13:45:51.494Z,7.722
2022-10-26T13:47:53.271Z,7.3
2022-10-26T13:49:54.844Z,4.492
2022-10-26T13:51:55.810Z,9.126
2022-10-26T13:53:57.100Z,6.879
2022-10-26T13:55:58.095Z,5.616
2022-10-26T13:57:59.368Z,2.246
2022-10-26T14:00:02.990Z,3.51
2022-10-26T14:02:02.345Z,1.404
2022-10-26T14:04:03.656Z,1.684
2022-10-26T14:06:05.236Z,2.106
2022-10-26T14:08:06.802Z,1.544
2022-10-26T14:12:09.224Z,2.106
2022-10-26T14:14:10.164Z,0.982
2022-10-26T14:16:12.833Z,0
2022-10-26T14:18:13.088Z,1.965
2022-10-26T14:20:14.117Z,0.14
2022-10-26T14:22:16.315Z,0.561
2022-10-26T14:24:17.277Z,0.561
2022-10-26T14:26:20.220Z,0
2022-10-26T14:28:19.916Z,0
2022-10-26T14:30:25.127Z,1.263
2022-10-26T14:32:21.822Z,0.702
2022-10-26T14:34:23.051Z,0.702
2022-10-26T14:36:24.095Z,0
2022-10-26T14:38:25.811Z,0
2022-10-26T14:40:27.429Z,0
2022-10-26T14:42:28.349Z,0.561
2022-10-26T14:44:29.802Z,0.561
2022-10-26T14:46:30.771Z,1.123
2022-10-26T14:48:31.651Z,0.702
2022-10-26T14:50:32.819Z,1.123
2022-10-26T14:52:33.703Z,1.965
2022-10-26T14:54:35.297Z,3.931
2022-10-26T14:56:36.686Z,3.229
2022-10-26T14:58:38.372Z,2.527
2022-10-26T15:02:40.631Z,2.667
2022-10-26T15:04:42.004Z,0.14
2022-10-26T15:06:43.736Z,2.527
2022-10-26T15:08:52.550Z,0.702
2022-10-26T15:12:47.161Z,0.14
2022-10-26T15:14:48.231Z,0.28
2022-10-26T15:16:49.587Z,0
2022-10-26T15:18:50.852Z,0
2022-10-26T15:20:52.024Z,1.965
2022-10-26T15:22:53.665Z,0
2022-10-26T15:24:55.055Z,1.123
2022-10-26T15:26:57.195Z,1.123
2022-10-26T15:28:57.725Z,1.684
2022-10-26T15:31:01.068Z,2.527
2022-10-26T15:33:01.120Z,1.123
2022-10-26T15:35:02.063Z,0.842
2022-10-26T15:37:03.181Z,1.684
2022-10-26T15:41:05.812Z,1.404
2022-10-26T15:43:07.552Z,0.28
2022-10-26T15:45:08.807Z,0
2022-10-26T15:47:10.060Z,0
2022-10-26T15:49:11.697Z,0.14
2022-10-26T15:51:13.358Z,0.982
2022-10-26T15:53:14.747Z,0.421
2022-10-26T15:55:17.283Z,0
2022-10-26T15:58:27.072Z,0
2022-10-26T15:59:20.001Z,0
2022-10-26T16:03:21.922Z,0
2022-10-26T16:05:22.942Z,0
2022-10-26T16:07:24.283Z,0
2022-10-26T16:09:25.995Z,0.28
2022-10-26T16:11:27.641Z,1.825
2022-10-26T16:13:28.826Z,0.842
2022-10-26T16:15:30.215Z,0.561
2022-10-26T16:17:31.621Z,1.684
2022-10-26T16:19:32.882Z,0.28
2022-10-26T16:21:34.302Z,0.421
2022-10-26T16:23:35.731Z,0.702
2022-10-26T16:25:37.367Z,0
2022-10-26T16:27:39.178Z,0
2022-10-26T16:29:40.567Z,0
2022-10-26T16:31:42.203Z,0
2022-10-26T16:33:43.221Z,0.561
2022-10-26T16:35:44.551Z,0
2022-10-26T16:37:45.720Z,0
2022-10-26T16:39:46.835Z,0
2022-10-26T16:41:48.243Z,0
2022-10-26T16:43:49.416Z,0
2022-10-26T16:45:50.557Z,0
2022-10-26T16:47:52.165Z,0
2022-10-26T16:49:53.179Z,0
2022-10-26T16:51:54.421Z,0
2022-10-26T16:53:55.886Z,0
2022-10-26T16:55:56.743Z,0
2022-10-26T16:57:58.325Z,0
2022-10-26T16:59:59.568Z,0
2022-10-26T17:02:01.163Z,0
2022-10-26T17:06:03.672Z,0
2022-10-26T17:08:05.435Z,0
2022-10-26T17:10:07.034Z,0
2022-10-26T17:12:08.332Z,0
2022-10-26T17:14:09.920Z,0
2022-10-26T17:16:11.674Z,0
2022-10-26T17:18:13.182Z,0
2022-10-26T17:20:14.041Z,0
2022-10-26T17:22:15.161Z,0
2022-10-26T17:24:16.299Z,0
2022-10-26T17:26:18.061Z,0
2022-10-26T17:28:19.910Z,0
2022-10-26T17:30:20.943Z,0
2022-10-26T17:32:22.504Z,0
2022-10-26T17:34:24.059Z,0
2022-10-26T17:36:25.160Z,0
2022-10-26T17:38:26.751Z,0
2022-10-26T17:40:28.322Z,0
2022-10-26T17:42:29.470Z,0
2022-10-26T17:44:30.986Z,0
2022-10-26T17:46:32.589Z,0
2022-10-26T17:48:33.893Z,0
2022-10-26T17:50:35.768Z,0
2022-10-26T17:52:37.399Z,0
2022-10-26T17:54:39.096Z,0
2022-10-26T17:56:40.498Z,0
2022-10-26T17:58:41.726Z,0
2022-10-26T18:00:46.662Z,0
2022-10-26T18:04:47.013Z,0
2022-10-26T18:06:48.347Z,0
2022-10-26T18:08:49.340Z,0
2022-10-26T18:10:50.225Z,0
2022-10-26T18:12:51.845Z,0
2022-10-26T18:14:53.174Z,0
2022-10-26T18:16:54.302Z,0.28
2022-10-26T18:18:56.032Z,0
2022-10-26T18:20:57.888Z,1.263
2022-10-26T18:22:59.347Z,1.404
2022-10-26T18:25:01.140Z,0.28
2022-10-26T18:27:02.083Z,0
2022-10-26T18:29:03.510Z,1.965
2022-10-26T18:31:04.945Z,0.561
2022-10-26T18:33:05.963Z,0.28
2022-10-26T18:37:08.517Z,0
2022-10-26T18:39:10.005Z,0
2022-10-26T18:41:11.374Z,0
2022-10-26T18:43:12.962Z,0
2022-10-26T18:47:16.226Z,0
2022-10-26T18:49:17.894Z,0
2022-10-26T18:53:20.865Z,0
2022-10-26T18:54:04.653Z,0
2022-10-26T18:56:05.605Z,0
2022-10-26T18:58:07.093Z,0
2022-10-26T19:00:08.911Z,0
2022-10-26T19:02:10.492Z,0
2022-10-26T19:04:11.404Z,0
2022-10-26T19:06:12.544Z,0
2022-10-26T19:08:14.291Z,0
2022-10-26T19:10:15.421Z,0
2022-10-26T19:12:16.543Z,0
2022-10-26T19:14:18.319Z,0
2022-10-26T19:16:33.150Z,0
2022-10-26T19:18:21.001Z,0
2022-10-26T19:20:22.634Z,0
2022-10-26T19:22:23.961Z,0
2022-10-26T19:24:25.279Z,0
2022-10-26T19:26:27.966Z,0
2022-10-26T19:28:27.457Z,0
2022-10-26T19:30:29.143Z,0
2022-10-26T19:32:30.823Z,0
2022-10-26T19:34:32.428Z,0
2022-10-26T19:36:33.621Z,0
2022-10-26T19:38:35.411Z,0
2022-10-26T19:40:37.097Z,0
2022-10-26T19:42:38.191Z,0
2022-10-26T19:44:40.076Z,0
2022-10-26T19:46:40.986Z,0
2022-10-26T19:48:42.704Z,0
2022-10-26T19:50:43.848Z,0
2022-10-26T19:52:45.290Z,0
2022-10-26T19:54:47.060Z,0
2022-10-26T19:56:48.855Z,0
2022-10-26T19:58:50.225Z,0
2022-10-26T20:00:51.990Z,0
2022-10-26T20:02:53.100Z,0
2022-10-26T20:04:54.633Z,0
2022-10-26T20:06:55.864Z,0
2022-10-26T20:08:57.226Z,0
2022-10-26T20:13:00.184Z,0
2022-10-26T20:15:01.605Z,0
2022-10-26T20:17:02.617Z,0
2022-10-26T20:19:04.200Z,0
2022-10-26T20:23:06.864Z,0
2022-10-26T20:25:08.513Z,0
2022-10-26T20:27:10.367Z,0
2022-10-26T20:29:11.975Z,0
2022-10-26T20:31:13.501Z,0
2022-10-26T20:33:14.632Z,0
2022-10-26T20:35:16.301Z,0
2022-10-26T20:37:17.361Z,0
2022-10-26T20:39:18.809Z,0
2022-10-26T20:41:19.996Z,0
2022-10-26T20:43:21.797Z,0
2022-10-26T20:45:23.276Z,0
2022-10-26T20:47:25.095Z,0
2022-10-26T20:49:26.030Z,0
2022-10-26T20:51:27.134Z,0
2022-10-26T20:53:28.626Z,0
2022-10-26T20:55:29.752Z,0
2022-10-26T20:57:31.420Z,0
2022-10-26T21:01:34.754Z,0
2022-10-26T21:05:37.545Z,0
2022-10-26T21:07:38.745Z,0
2022-10-26T21:09:40.442Z,0
2022-10-26T21:11:41.416Z,0
2022-10-26T21:13:42.582Z,0
2022-10-26T21:17:46.364Z,0
2022-10-26T21:19:47.440Z,0
2022-10-26T21:21:49.210Z,0
2022-10-26T21:23:50.780Z,0
2022-10-26T21:27:53.454Z,0
2022-10-26T21:29:54.475Z,0
2022-10-26T21:31:55.405Z,0
2022-10-26T21:33:56.426Z,0
2022-10-26T21:37:59.060Z,0
2022-10-26T21:40:00.258Z,0
2022-10-26T21:42:01.625Z,0
2022-10-26T21:44:08.806Z,0
2022-10-26T21:48:05.591Z,0
2022-10-26T21:50:07.472Z,0
2022-10-26T21:52:08.461Z,0
2022-10-26T21:54:09.852Z,0
2022-10-26T21:56:11.665Z,0
2022-10-26T21:58:13.524Z,0
2022-10-26T22:00:15.273Z,0
2022-10-26T22:02:16.844Z,0
2022-10-26T22:04:17.793Z,0
2022-10-26T22:08:19.673Z,0
2022-10-26T22:10:21.249Z,0
2022-10-26T22:12:22.786Z,0
2022-10-26T22:14:24.693Z,0
2022-10-26T22:16:26.602Z,0
2022-10-26T22:18:27.713Z,0
2022-10-26T22:20:29.406Z,0
2022-10-26T22:22:30.325Z,0
2022-10-26T22:24:31.912Z,0
2022-10-26T22:26:33.151Z,0
2022-10-26T22:28:36.327Z,0
2022-10-26T22:30:36.554Z,0
2022-10-26T22:32:38.152Z,0
2022-10-26T22:34:39.343Z,0
2022-10-26T22:36:40.604Z,0
2022-10-26T22:38:41.633Z,0
2022-10-26T22:40:43.406Z,0
2022-10-26T22:42:45.006Z,0
2022-10-26T22:46:48.266Z,0
2022-10-26T22:48:49.338Z,0
2022-10-26T22:50:51.035Z,0
2022-10-26T22:52:52.429Z,0
2022-10-26T22:54:52.987Z,0
2022-10-26T22:56:54.229Z,0
2022-10-26T22:58:55.807Z,0
2022-10-26T23:00:57.339Z,0
2022-10-26T23:02:58.429Z,0
2022-10-26T23:05:00.143Z,0
2022-10-26T23:07:01.163Z,0
2022-10-26T23:09:03.092Z,0
2022-10-26T23:11:04.622Z,0
2022-10-26T23:13:05.886Z,0
2022-10-26T23:15:07.632Z,0
2022-10-26T23:17:09.478Z,0
2022-10-26T23:19:10.650Z,0
2022-10-26T23:21:11.880Z,0
2022-10-26T23:23:13.525Z,0
2022-10-26T23:25:15.053Z,0
2022-10-26T23:29:18.084Z,0
2022-10-26T23:31:19.097Z,0
2022-10-26T23:33:20.629Z,0
2022-10-26T23:35:21.637Z,0
2022-10-26T23:37:23.224Z,0
2022-10-26T23:39:24.763Z,0
2022-10-26T23:41:25.930Z,0
2022-10-26T23:43:26.893Z,0
2022-10-26T23:45:28.481Z,0
2022-10-26T23:47:30.205Z,0
2022-10-26T23:49:31.869Z,0
2022-10-26T23:51:33.135Z,0
2022-10-26T23:53:34.890Z,0
2022-10-26T23:55:36.664Z,0
2022-10-26T23:57:37.682Z,0
2022-10-26T23:59:39.070Z,0
